Time;durP1;ratioP1;P1;durP2;ratioP2;P2;SDS_P1;SDS_P2;PMS_P1;PMS_P2;Temp;Humidity;BMP_temperature;BMP_pressure;BME280_temperature;BME280_humidity;BME280_pressure;Samples;Min_cycle;Max_cycle;Signal;HPM_P1;HPM_P2
2021/12/23 01:41:29;;;;;;;;;;;;;;;;;;;;;
2021/12/23 02:02:51;;;;;;;25.07;15.03;;;-1.50;99.90;;;;;;4878318;29;20127;-91
2021/12/23 02:16:01;;;;;;;;;;;;;;;;;;;;;
2021/12/23 02:19:43;;;;;;;;;;;;;;;;;;;;;
2021/12/23 02:23:36;;;;;;;27.63;15.53;;;-0.60;99.90;;;;;;5243374;23;20055;-91
2021/12/23 03:06:13;;;;;;;26.03;15.00;;;-0.90;99.90;;;;;;4898714;29;20058;-91
2021/12/23 03:18:31;;;;;;;26.60;14.90;;;-1.80;99.90;;;;;;5292335;23;20103;-91
2021/12/23 03:22:07;;;;;;;25.63;14.63;;;-2.30;99.90;;;;;;4833054;29;20615;-91
2021/12/23 03:34:45;;;;;;;24.53;14.40;;;-1.70;99.90;;;;;;4919256;23;20052;-91
2021/12/23 03:37:44;;;;;;;25.40;14.73;;;-0.90;99.90;;;;;;4918712;23;20044;-91
2021/12/23 03:50:31;;;;;;;;;;;;;;;;;;;;;
2021/12/23 03:56:50;;;;;;;;;;;;;;;;;;;;;
2021/12/23 04:15:09;;;;;;;24.10;15.43;;;-2.40;99.90;;;;;;4942955;29;20052;-91
2021/12/23 04:18:12;;;;;;;;;;;;;;;;;;;;;
2021/12/23 04:41:44;;;;;;;27.37;15.27;;;-1.50;99.90;;;;;;4903548;29;20055;-91
2021/12/23 04:44:44;;;;;;;27.73;15.97;;;-0.30;99.90;;;;;;4903108;29;20052;-91
2021/12/23 04:47:29;;;;;;;;;;;;;;;;;;;;;
2021/12/23 04:50:53;;;;;;;26.50;15.63;;;-0.70;99.90;;;;;;4810010;29;20061;-92
2021/12/23 04:58:21;;;;;;;32.70;19.57;;;-1.80;99.90;;;;;;4756938;30;20183;-91
2021/12/23 05:01:32;;;;;;;24.70;14.23;;;-1.70;99.90;;;;;;4751978;30;20129;-92
2021/12/23 05:07:24;;;;;;;31.13;19.27;;;-1.50;99.90;;;;;;5159707;23;20064;-91
2021/12/23 05:28:48;;;;;;;;;;;;;;;;;;;;;
2021/12/23 05:31:52;;;;;;;;;;;-2.00;99.90;;;;;;4868714;29;20108;-91
2021/12/23 05:35:07;;;;;;;26.20;15.20;;;-0.70;99.90;;;;;;4901654;29;20013;-91
2021/12/23 05:41:41;;;;;;;;;;;;;;;;;;;;;
2021/12/23 05:49:12;;;;;;;26.55;15.00;;;-2.30;99.90;;;;;;4881342;29;20065;-90
2021/12/23 05:52:27;;;;;;;25.43;14.43;;;-0.70;99.90;;;;;;4875312;29;20075;-91
2021/12/23 06:06:16;;;;;;;;;;;;;;;;;;;;;
2021/12/23 06:15:43;;;;;;;25.55;15.18;;;-0.50;99.90;;;;;;5145444;23;20078;-92
2021/12/23 06:21:35;;;;;;;27.03;15.30;;;-1.30;99.90;;;;;;4921413;23;20444;-91
2021/12/23 06:28:06;;;;;;;;;;;;;;;;;;;;;
2021/12/23 06:38:29;;;;;;;29.30;16.35;;;-1.60;99.90;;;;;;4880892;29;20053;-92
2021/12/23 06:41:21;;;;;;;;;;;;;;;;;;;;;
2021/12/23 06:48:08;;;;;;;28.73;15.43;;;-0.70;99.90;;;;;;4897848;29;20056;-91
2021/12/23 07:01:34;;;;;;;25.30;15.37;;;-1.20;99.90;;;;;;5077264;23;20056;-89
2021/12/23 07:04:50;;;;;;;28.57;16.63;;;-0.60;99.90;;;;;;4918656;29;20059;-95
2021/12/23 07:08:27;;;;;;;30.80;16.00;;;-1.00;99.90;;;;;;4901429;29;20142;-86
2021/12/23 07:12:02;;;;;;;27.88;15.73;;;-1.70;99.90;;;;;;4882041;29;20601;-85
2021/12/23 07:14:27;;;;;;;26.00;15.40;;;-1.00;99.90;;;;;;4880439;29;20748;-84
2021/12/23 07:17:17;;;;;;;28.77;16.27;;;-1.30;99.90;;;;;;4897425;29;20044;-84
2021/12/23 07:20:25;;;;;;;30.83;18.07;;;-1.20;99.90;;;;;;4946517;23;20052;-85
2021/12/23 07:22:55;;;;;;;29.97;17.47;;;-0.60;99.90;;;;;;4884190;29;20052;-86
2021/12/23 07:25:21;;;;;;;30.40;16.00;;;-0.10;99.90;;;;;;4898995;29;20044;-85
2021/12/23 07:27:56;;;;;;;26.33;15.87;;;-1.10;99.90;;;;;;4899002;29;20074;-85
2021/12/23 07:30:23;;;;;;;32.13;16.57;;;0.20;99.90;;;;;;4899438;29;20150;-84
2021/12/23 07:32:50;;;;;;;29.40;17.80;;;-0.50;99.90;;;;;;4898410;29;20055;-83
2021/12/23 07:35:19;;;;;;;27.90;15.57;;;-1.20;99.90;;;;;;4899411;29;20396;-85
2021/12/23 07:37:54;;;;;;;30.13;16.97;;;-0.90;99.90;;;;;;4899215;29;20392;-84
2021/12/23 07:40:23;;;;;;;31.40;17.70;;;-1.30;99.90;;;;;;4915917;29;20110;-84
2021/12/23 07:45:39;;;;;;;30.13;17.23;;;-1.00;99.90;;;;;;4898760;29;20048;-84
2021/12/23 07:48:20;;;;;;;28.47;16.43;;;-0.70;99.90;;;;;;4901155;29;20436;-84
2021/12/23 07:50:45;;;;;;;28.53;17.20;;;-0.80;99.90;;;;;;4898794;29;20504;-84
2021/12/23 07:53:11;;;;;;;28.70;16.33;;;-0.30;99.90;;;;;;4899191;29;20052;-84
2021/12/23 07:55:49;;;;;;;28.90;17.20;;;-1.10;99.90;;;;;;4899730;29;20040;-84
2021/12/23 07:58:15;;;;;;;31.63;17.40;;;0.50;99.90;;;;;;4899072;29;20088;-84
2021/12/23 08:00:50;;;;;;;27.50;16.63;;;-1.10;99.90;;;;;;4898559;29;20076;-84
2021/12/23 08:03:15;;;;;;;31.37;17.87;;;0.00;99.90;;;;;;4899005;29;20056;-84
2021/12/23 08:05:44;;;;;;;32.57;18.40;;;-1.10;99.90;;;;;;4898716;29;20130;-84
2021/12/23 08:08:13;;;;;;;33.17;18.83;;;-1.10;99.90;;;;;;4915294;29;20386;-84
2021/12/23 08:10:42;;;;;;;32.10;17.73;;;-0.90;99.90;;;;;;4922927;23;20425;-84
2021/12/23 08:13:07;;;;;;;29.87;18.00;;;-0.90;99.90;;;;;;4898772;29;20100;-84
2021/12/23 08:15:39;;;;;;;32.23;17.30;;;0.00;99.90;;;;;;4898399;29;20044;-84
2021/12/23 08:18:19;;;;;;;32.20;17.70;;;-1.10;99.90;;;;;;4899009;29;20079;-84
2021/12/23 08:20:46;;;;;;;31.63;18.57;;;-1.10;99.90;;;;;;4899412;29;20044;-85
2021/12/23 08:23:12;;;;;;;32.70;18.47;;;-1.00;99.90;;;;;;4901896;29;20044;-84
2021/12/23 08:25:46;;;;;;;30.93;18.50;;;-1.20;99.90;;;;;;4902647;29;20100;-84
2021/12/23 08:28:27;;;;;;;33.27;18.93;;;-0.10;99.90;;;;;;4902176;29;20040;-84
2021/12/23 08:30:52;;;;;;;33.07;18.57;;;-0.80;99.90;;;;;;4918453;29;20047;-84
2021/12/23 08:33:37;;;;;;;32.00;18.83;;;-0.80;99.90;;;;;;4901519;29;20055;-85
2021/12/23 08:36:02;;;;;;;33.58;19.00;;;0.10;99.90;;;;;;4902018;29;20047;-85
2021/12/23 08:38:28;;;;;;;33.27;18.80;;;-0.60;99.90;;;;;;4902078;29;20441;-83
2021/12/23 08:40:56;;;;;;;33.60;18.57;;;-0.80;99.90;;;;;;4918408;29;20087;-83
2021/12/23 08:43:23;;;;;;;34.70;20.40;;;-0.80;99.90;;;;;;4918446;29;20144;-83
2021/12/23 08:45:49;;;;;;;33.80;20.07;;;-0.90;99.90;;;;;;4918567;29;20079;-84
2021/12/23 08:48:14;;;;;;;36.03;20.23;;;-0.80;99.90;;;;;;4901900;29;20102;-84
2021/12/23 08:50:40;;;;;;;36.03;20.77;;;0.20;99.90;;;;;;4901759;29;20107;-84
2021/12/23 08:53:06;;;;;;;37.17;21.03;;;-0.90;99.90;;;;;;4901629;29;20107;-84
2021/12/23 08:55:33;;;;;;;33.57;20.50;;;-0.80;99.90;;;;;;4901801;29;20071;-84
2021/12/23 08:58:13;;;;;;;38.07;20.93;;;-0.10;99.90;;;;;;4918266;29;20075;-87
2021/12/23 09:00:40;;;;;;;40.47;21.40;;;-0.10;99.90;;;;;;4902709;29;20044;-86
2021/12/23 09:03:17;;;;;;;37.50;20.73;;;-0.70;99.90;;;;;;4919078;29;20052;-88
2021/12/23 09:05:44;;;;;;;36.87;21.40;;;-0.80;99.90;;;;;;4901042;29;20048;-83
2021/12/23 09:08:10;;;;;;;36.63;20.67;;;-0.70;99.90;;;;;;4901210;29;20099;-84
2021/12/23 09:10:53;;;;;;;38.07;20.93;;;-0.50;99.90;;;;;;4900706;29;20067;-84
2021/12/23 09:13:31;;;;;;;38.65;21.85;;;-0.50;99.90;;;;;;4902051;29;20047;-83
2021/12/23 09:16:01;;;;;;;39.30;23.03;;;-0.90;99.90;;;;;;4898702;29;20063;-83
2021/12/23 09:18:27;;;;;;;41.07;23.27;;;-0.70;99.90;;;;;;4899597;29;20509;-84
2021/12/23 09:21:12;;;;;;;38.80;21.83;;;-0.40;99.90;;;;;;4900314;29;20044;-84
2021/12/23 09:23:53;;;;;;;44.97;24.50;;;-0.80;99.90;;;;;;4898691;29;20056;-83
2021/12/23 09:26:36;;;;;;;36.93;20.37;;;-0.50;99.90;;;;;;4898957;29;20046;-83
2021/12/23 09:34:30;;;;;;;48.80;31.35;;;-1.50;99.90;;;;;;4901039;29;20453;-82
2021/12/23 09:36:59;;;;;;;39.13;22.57;;;-0.50;99.90;;;;;;4900833;29;20183;-82
2021/12/23 09:39:27;;;;;;;41.50;22.73;;;0.20;99.90;;;;;;4903019;29;20134;-82
2021/12/23 09:41:52;;;;;;;43.10;23.57;;;-0.50;99.90;;;;;;4901406;29;20072;-82
2021/12/23 09:44:18;;;;;;;40.90;22.50;;;0.70;99.90;;;;;;4900464;29;20080;-82
2021/12/23 09:46:44;;;;;;;43.10;24.93;;;0.00;99.90;;;;;;4902183;29;20404;-82
2021/12/23 09:49:10;;;;;;;45.00;25.03;;;0.40;99.90;;;;;;4900513;29;20087;-81
2021/12/23 09:51:37;;;;;;;40.00;22.07;;;-0.50;99.90;;;;;;4915485;29;20055;-81
2021/12/23 09:54:07;;;;;;;44.40;24.30;;;-0.60;99.90;;;;;;4916702;29;20130;-82
2021/12/23 09:56:36;;;;;;;44.00;24.10;;;-0.50;99.90;;;;;;4900718;29;20048;-82
2021/12/23 09:59:06;;;;;;;45.10;24.03;;;-0.50;99.90;;;;;;4900580;29;20055;-81
2021/12/23 10:01:32;;;;;;;45.80;24.03;;;-0.60;99.90;;;;;;4916968;29;20051;-82
2021/12/23 10:04:05;;;;;;;53.43;29.67;;;-0.50;99.90;;;;;;4899531;29;20048;-81
2021/12/23 10:06:48;;;;;;;56.08;32.58;;;-0.40;99.90;;;;;;4915776;29;20497;-82
2021/12/23 10:09:22;;;;;;;45.50;25.80;;;-0.50;99.90;;;;;;4899998;29;20052;-82
2021/12/23 10:12:38;;;;;;;47.53;26.70;;;-0.30;99.90;;;;;;4915680;29;20063;-82
2021/12/23 10:32:00;;;;;;;41.97;24.20;;;-0.20;99.90;;;;;;4900200;29;20130;-82
2021/12/23 10:39:42;;;;;;;47.27;26.13;;;-0.20;99.90;;;;;;4899745;29;20058;-81
2021/12/23 10:42:14;;;;;;;50.63;27.20;;;-0.20;99.90;;;;;;4881935;29;20052;-81
2021/12/23 10:44:46;;;;;;;46.83;27.23;;;-0.10;99.90;;;;;;4880371;29;20053;-81
2021/12/23 10:47:56;;;;;;;59.77;29.97;;;-0.10;99.90;;;;;;4880661;29;20489;-81
2021/12/23 10:50:43;;;;;;;47.93;26.70;;;-0.80;99.90;;;;;;4880546;29;20126;-81
2021/12/23 10:53:22;;;;;;;43.77;24.33;;;-0.10;99.90;;;;;;4880661;29;20049;-80
2021/12/23 10:59:15;;;;;;;53.30;29.20;;;-0.10;99.90;;;;;;4887332;29;20041;-81
2021/12/23 11:02:18;;;;;;;48.30;25.97;;;-0.10;99.90;;;;;;4880435;29;20132;-81
2021/12/23 11:05:15;;;;;;;48.63;25.57;;;-0.10;99.90;;;;;;4879888;29;20055;-81
2021/12/23 11:08:15;;;;;;;53.00;28.10;;;-0.10;99.90;;;;;;4880420;29;20059;-81
2021/12/23 11:30:44;;;;;;;53.57;27.37;;;-0.10;99.90;;;;;;4894361;29;20376;-82
2021/12/23 11:36:04;;;;;;;55.10;28.23;;;-0.10;99.90;;;;;;4896495;29;20049;-81
2021/12/23 11:39:00;;;;;;;55.63;28.10;;;0.90;99.90;;;;;;4893023;29;20421;-82
2021/12/23 11:44:22;;;;;;;53.55;28.10;;;-0.10;99.90;;;;;;4895427;29;20139;-83
2021/12/23 11:46:54;;;;;;;48.03;26.30;;;0.30;99.90;;;;;;4895093;29;20048;-83
2021/12/23 11:49:21;;;;;;;50.80;27.77;;;1.40;99.90;;;;;;4895786;29;20045;-83
2021/12/23 11:54:18;;;;;;;51.80;28.23;;;1.00;99.90;;;;;;4894825;29;20052;-83
2021/12/23 11:56:50;;;;;;;50.10;26.47;;;1.00;99.90;;;;;;4897762;29;20072;-83
2021/12/23 11:59:18;;;;;;;53.47;27.90;;;0.00;99.90;;;;;;4899661;29;20454;-83
2021/12/23 12:01:54;;;;;;;53.53;29.43;;;-0.20;99.90;;;;;;4898057;29;20055;-83
2021/12/23 12:04:40;;;;;;;57.97;33.47;;;0.20;99.90;;;;;;4899157;29;20108;-83
2021/12/23 12:07:20;;;;;;;56.23;28.20;;;0.00;99.90;;;;;;4898856;29;20055;-83
2021/12/23 12:10:32;;;;;;;59.07;29.37;;;-0.30;99.90;;;;;;4899122;29;20408;-84
2021/12/23 12:13:11;;;;;;;55.43;29.70;;;1.10;99.90;;;;;;4863451;29;20108;-83
2021/12/23 12:15:50;;;;;;;56.20;28.77;;;0.60;99.90;;;;;;4864713;29;20057;-85
2021/12/23 12:18:45;;;;;;;55.40;27.93;;;-0.20;99.90;;;;;;4899345;29;20052;-83
2021/12/23 12:21:35;;;;;;;;;;;-0.30;99.90;;;;;;4897111;29;20049;-83
2021/12/23 12:24:14;;;;;;;56.37;29.33;;;0.00;99.90;;;;;;4897065;29;20380;-82
2021/12/23 12:27:08;;;;;;;55.53;31.47;;;-0.10;99.90;;;;;;4898551;29;20048;-82
2021/12/23 12:30:05;;;;;;;52.43;27.30;;;-0.80;99.90;;;;;;4897399;29;20040;-82
2021/12/23 12:32:44;;;;;;;52.17;27.93;;;0.10;99.90;;;;;;4898637;29;20061;-82
2021/12/23 12:35:35;;;;;;;53.97;27.60;;;1.60;99.90;;;;;;4906468;23;20044;-83
2021/12/23 12:38:19;;;;;;;49.43;26.30;;;-0.90;99.90;;;;;;4912191;29;20654;-85
2021/12/23 12:41:18;;;;;;;54.33;28.95;;;0.00;99.90;;;;;;4916098;29;20043;-84
2021/12/23 12:43:47;;;;;;;55.63;27.37;;;0.10;99.90;;;;;;4899479;29;20040;-84
2021/12/23 12:46:37;;;;;;;54.93;28.27;;;-0.10;99.90;;;;;;4896130;29;20051;-84
2021/12/23 12:49:17;;;;;;;55.30;27.00;;;0.00;99.90;;;;;;4927704;23;20052;-85
2021/12/23 12:51:55;;;;;;;50.53;27.50;;;0.20;99.90;;;;;;4899533;29;20052;-83
2021/12/23 12:54:42;;;;;;;55.97;29.57;;;0.10;99.90;;;;;;4898266;29;20508;-83
2021/12/23 12:57:18;;;;;;;54.50;28.40;;;0.10;99.90;;;;;;4899326;29;20492;-83
2021/12/23 12:59:49;;;;;;;55.07;29.13;;;0.30;99.90;;;;;;4898539;29;20044;-83
2021/12/23 13:03:06;;;;;;;56.43;28.83;;;-0.10;99.90;;;;;;4899472;29;20625;-83
2021/12/23 13:05:52;;;;;;;56.33;29.17;;;-0.30;99.90;;;;;;4836217;29;20049;-82
2021/12/23 13:08:40;;;;;;;56.05;28.85;;;1.20;99.90;;;;;;4832229;29;20182;-82
2021/12/23 13:11:41;;;;;;;58.00;29.33;;;-0.70;99.90;;;;;;4843013;29;20063;-81
2021/12/23 13:14:46;;;;;;;57.07;29.30;;;0.40;99.90;;;;;;4836707;29;20045;-84
2021/12/23 13:17:12;;;;;;;62.67;29.63;;;0.10;99.90;;;;;;4914826;23;20071;-81
2021/12/23 13:20:30;;;;;;;54.37;26.97;;;1.10;99.90;;;;;;4902205;29;20047;-81
2021/12/23 13:23:06;;;;;;;53.00;26.83;;;0.20;99.90;;;;;;4917232;29;20066;-83
2021/12/23 13:25:48;;;;;;;57.20;29.73;;;1.50;99.90;;;;;;4900290;29;20059;-82
2021/12/23 13:28:22;;;;;;;54.23;28.73;;;0.10;99.90;;;;;;4900567;29;20488;-81
2021/12/23 13:30:47;;;;;;;56.33;27.90;;;0.20;99.90;;;;;;4903338;29;20048;-82
2021/12/23 13:33:28;;;;;;;53.33;28.27;;;1.00;99.90;;;;;;4899951;29;20059;-82
2021/12/23 13:35:54;;;;;;;53.83;27.50;;;1.10;99.90;;;;;;4899932;29;20051;-82
2021/12/23 13:38:40;;;;;;;54.37;27.17;;;0.10;99.90;;;;;;4900259;29;20135;-82
2021/12/23 13:41:57;;;;;;;53.10;27.60;;;0.30;99.90;;;;;;4898992;29;20052;-82
2021/12/23 13:44:47;;;;;;;70.67;36.70;;;0.40;99.90;;;;;;4850836;29;20124;-82
2021/12/23 13:47:37;;;;;;;52.67;27.20;;;-0.30;99.90;;;;;;4853605;29;20148;-82
2021/12/23 13:50:04;;;;;;;56.03;28.93;;;0.10;99.90;;;;;;4846581;29;20053;-82
2021/12/23 13:52:39;;;;;;;55.93;28.57;;;0.20;99.90;;;;;;4843604;29;20140;-83
2021/12/23 13:55:26;;;;;;;57.53;27.97;;;0.00;99.90;;;;;;4860494;29;20052;-82
2021/12/23 13:57:58;;;;;;;55.67;28.00;;;0.30;99.90;;;;;;4900124;29;20515;-82
2021/12/23 14:00:35;;;;;;;51.77;27.13;;;1.20;99.90;;;;;;4900055;29;20048;-82
2021/12/23 14:03:18;;;;;;;53.73;28.17;;;0.30;99.90;;;;;;4900160;29;20044;-82
2021/12/23 14:06:01;;;;;;;53.77;28.03;;;0.10;99.90;;;;;;4899466;29;20115;-83
2021/12/23 14:08:30;;;;;;;52.43;28.37;;;-0.10;99.90;;;;;;4899846;29;20139;-82
2021/12/23 14:10:57;;;;;;;55.20;27.33;;;0.10;99.90;;;;;;4899857;29;20084;-82
2021/12/23 14:13:37;;;;;;;53.53;27.03;;;0.30;99.90;;;;;;4899788;29;20044;-82
2021/12/23 14:16:03;;;;;;;58.20;33.07;;;0.30;99.90;;;;;;4900229;29;20085;-82
2021/12/23 14:18:45;;;;;;;50.80;27.67;;;0.30;99.90;;;;;;4896132;29;20108;-83
2021/12/23 14:24:07;;;;;;;51.93;27.37;;;0.20;99.90;;;;;;4897084;29;20139;-82
2021/12/23 14:26:34;;;;;;;51.23;27.53;;;0.40;99.90;;;;;;4897398;29;20549;-82
2021/12/23 14:29:14;;;;;;;54.33;28.23;;;0.40;99.90;;;;;;4896396;29;20152;-84
2021/12/23 14:31:51;;;;;;;53.70;28.70;;;0.40;99.90;;;;;;4896974;29;20044;-83
2021/12/23 14:34:24;;;;;;;52.80;27.37;;;0.40;99.90;;;;;;4896290;29;20065;-83
2021/12/23 14:36:54;;;;;;;55.47;31.00;;;0.50;99.90;;;;;;4896602;29;20052;-83
2021/12/23 14:39:26;;;;;;;51.93;28.13;;;0.50;99.90;;;;;;4897074;29;20048;-83
2021/12/23 14:41:55;;;;;;;50.80;27.53;;;0.50;99.90;;;;;;4896456;29;20111;-82
2021/12/23 14:44:27;;;;;;;53.47;28.93;;;0.50;99.90;;;;;;4898063;29;20053;-82
2021/12/23 14:47:00;;;;;;;51.60;28.10;;;0.50;99.90;;;;;;4896495;29;20123;-82
2021/12/23 14:49:41;;;;;;;56.33;29.63;;;0.50;99.90;;;;;;4896130;29;20044;-83
2021/12/23 14:52:18;;;;;;;51.03;27.50;;;0.50;99.90;;;;;;4896640;29;20060;-82
2021/12/23 14:55:01;;;;;;;55.70;28.60;;;0.50;99.90;;;;;;4896330;29;20103;-82
2021/12/23 14:57:51;;;;;;;53.63;27.60;;;0.50;99.90;;;;;;4895966;29;20155;-82
2021/12/23 15:00:22;;;;;;;59.60;33.80;;;0.50;99.90;;;;;;4896689;29;20157;-83
2021/12/23 15:02:48;;;;;;;50.83;27.93;;;0.50;99.90;;;;;;4896096;29;20397;-83
2021/12/23 15:05:17;;;;;;;60.43;32.93;;;0.50;99.90;;;;;;4895629;29;20486;-83
2021/12/23 15:07:56;;;;;;;53.83;28.63;;;0.50;99.90;;;;;;4895369;29;20386;-82
2021/12/23 15:10:27;;;;;;;55.37;28.77;;;0.60;99.90;;;;;;4895509;29;20052;-84
2021/12/23 15:12:52;;;;;;;54.60;28.90;;;0.60;99.90;;;;;;4898892;29;20059;-84
2021/12/23 15:15:18;;;;;;;53.53;28.50;;;0.60;99.90;;;;;;4896155;29;20415;-83
2021/12/23 15:17:54;;;;;;;64.07;37.87;;;0.60;99.90;;;;;;4895180;29;20052;-83
2021/12/23 15:20:28;;;;;;;57.47;29.20;;;0.60;99.90;;;;;;4896183;29;20057;-83
2021/12/23 15:22:56;;;;;;;64.60;36.60;;;0.60;99.90;;;;;;4902659;29;20048;-84
2021/12/23 15:25:39;;;;;;;53.00;26.60;;;0.50;99.90;;;;;;4895865;29;20389;-83
2021/12/23 15:28:08;;;;;;;59.27;30.23;;;0.60;99.90;;;;;;4895555;29;20079;-84
2021/12/23 15:30:39;;;;;;;60.77;30.60;;;0.60;99.90;;;;;;4896112;29;20142;-83
2021/12/23 15:33:05;;;;;;;60.33;31.30;;;0.50;99.90;;;;;;4900142;29;20044;-84
2021/12/23 15:35:32;;;;;;;59.57;30.47;;;0.60;99.90;;;;;;4899784;29;20501;-84
2021/12/23 15:37:59;;;;;;;69.03;34.90;;;0.60;99.90;;;;;;4898972;29;20136;-84
2021/12/23 15:40:34;;;;;;;59.63;29.37;;;0.60;99.90;;;;;;4899857;29;20061;-83
2021/12/23 15:43:06;;;;;;;56.70;28.57;;;0.60;99.90;;;;;;4899236;29;20053;-83
2021/12/23 15:45:33;;;;;;;66.57;33.30;;;0.60;99.90;;;;;;4899564;29;20056;-83
2021/12/23 15:48:00;;;;;;;97.07;50.63;;;0.70;99.90;;;;;;4899614;29;20064;-84
2021/12/23 15:50:29;;;;;;;65.10;32.00;;;1.50;99.90;;;;;;4899741;29;20056;-84
2021/12/23 15:52:58;;;;;;;59.37;28.83;;;0.90;99.90;;;;;;4899091;29;20074;-86
2021/12/23 15:55:29;;;;;;;63.80;32.03;;;0.70;99.90;;;;;;4899796;29;20049;-86
2021/12/23 15:57:55;;;;;;;57.93;28.77;;;0.70;99.90;;;;;;4899464;29;20093;-85
2021/12/23 16:00:21;;;;;;;66.80;34.00;;;0.70;99.90;;;;;;4898980;29;20453;-86
2021/12/23 16:02:50;;;;;;;59.60;28.83;;;0.70;99.90;;;;;;4898164;29;20071;-91
2021/12/23 16:07:42;;;;;;;65.77;30.73;;;0.80;99.90;;;;;;4901195;29;20401;-87
2021/12/23 16:10:11;;;;;;;66.97;29.47;;;0.70;99.90;;;;;;4898329;29;20096;-87
2021/12/23 16:12:56;;;;;;;64.60;31.97;;;1.90;99.90;;;;;;4899606;29;20052;-87
2021/12/23 16:15:23;;;;;;;60.33;30.37;;;0.80;99.90;;;;;;4899386;29;20186;-87
2021/12/23 16:18:10;;;;;;;62.30;30.27;;;0.50;99.90;;;;;;4901356;29;20060;-88
2021/12/23 16:20:36;;;;;;;70.83;38.40;;;0.80;99.90;;;;;;4905521;29;20080;-89
2021/12/23 16:23:01;;;;;;;59.77;28.80;;;0.90;99.90;;;;;;4923624;29;20096;-88
2021/12/23 16:25:51;;;;;;;65.07;31.37;;;0.80;99.90;;;;;;4917629;29;20048;-89
2021/12/23 16:29:04;;;;;;;60.83;29.77;;;0.90;99.90;;;;;;4906421;29;20059;-89
2021/12/23 16:31:32;;;;;;;67.83;33.50;;;1.00;99.90;;;;;;4898767;29;20088;-95
2021/12/23 16:34:24;;;;;;;66.70;30.40;;;0.80;99.90;;;;;;4899168;29;20059;-87
2021/12/23 16:37:00;;;;;;;77.73;33.40;;;1.70;99.90;;;;;;4900386;29;20064;-88
2021/12/23 16:39:47;;;;;;;70.73;32.60;;;1.30;99.90;;;;;;4898646;29;20477;-87
2021/12/23 16:42:29;;;;;;;77.27;33.13;;;0.60;99.90;;;;;;4900059;29;20052;-87
2021/12/23 16:45:15;;;;;;;74.93;33.00;;;0.90;99.90;;;;;;4984880;23;20512;-88
2021/12/23 16:47:41;;;;;;;76.57;34.60;;;0.70;99.90;;;;;;4901715;29;20052;-88
2021/12/23 16:50:28;;;;;;;84.50;36.37;;;0.70;99.90;;;;;;4901327;29;20044;-88
2021/12/23 16:53:26;;;;;;;89.13;35.40;;;1.60;99.90;;;;;;4903406;29;20104;-92
2021/12/23 16:58:39;;;;;;;80.27;33.50;;;1.00;99.90;;;;;;4902508;29;20512;-88
2021/12/23 17:01:26;;;;;;;85.53;36.07;;;1.30;99.90;;;;;;4900929;29;20052;-89
2021/12/23 17:04:07;;;;;;;84.93;35.93;;;1.40;99.90;;;;;;4914769;29;20052;-89
2021/12/23 17:06:39;;;;;;;94.07;36.73;;;2.20;99.90;;;;;;4915693;29;20044;-87
2021/12/23 17:09:11;;;;;;;92.90;36.37;;;1.10;99.90;;;;;;4907944;29;20048;-86
2021/12/23 17:11:39;;;;;;;100.33;37.93;;;1.10;99.90;;;;;;4917936;29;20059;-87
2021/12/23 17:14:05;;;;;;;105.43;41.80;;;1.40;99.90;;;;;;4929102;29;20047;-88
2021/12/23 17:16:36;;;;;;;108.00;39.70;;;1.10;99.90;;;;;;4907134;29;20056;-88
2021/12/23 17:19:29;;;;;;;118.07;42.13;;;1.20;99.90;;;;;;4905629;29;20071;-87
2021/12/23 17:21:56;;;;;;;126.23;41.27;;;1.40;99.90;;;;;;4900085;29;20055;-88
2021/12/23 17:24:28;;;;;;;133.07;43.90;;;1.50;99.90;;;;;;4900690;29;20044;-87
2021/12/23 17:26:55;;;;;;;125.87;42.20;;;1.60;99.90;;;;;;4898270;29;20404;-88
2021/12/23 17:29:23;;;;;;;133.67;44.77;;;1.30;99.90;;;;;;4901167;29;20102;-88
2021/12/23 17:31:55;;;;;;;113.17;39.87;;;1.00;99.90;;;;;;4900546;29;20459;-88
2021/12/23 17:34:25;;;;;;;123.87;43.53;;;1.40;99.90;;;;;;4900575;29;20047;-88
2021/12/23 17:36:56;;;;;;;137.03;45.00;;;1.30;99.90;;;;;;4898454;29;20059;-88
2021/12/23 17:39:39;;;;;;;136.97;46.40;;;2.30;99.90;;;;;;4900289;29;20528;-88
2021/12/23 17:42:11;;;;;;;131.83;47.20;;;2.50;99.90;;;;;;4899584;29;20131;-88
2021/12/23 17:44:46;;;;;;;138.80;45.30;;;2.10;99.90;;;;;;4896754;29;20075;-88
2021/12/23 17:47:21;;;;;;;154.97;49.60;;;2.60;99.90;;;;;;4895371;29;20473;-88
2021/12/23 17:49:50;;;;;;;153.20;49.87;;;1.70;99.90;;;;;;4897171;29;20401;-88
2021/12/23 17:52:34;;;;;;;169.53;49.97;;;2.50;99.90;;;;;;4895039;29;20055;-88
2021/12/23 17:55:00;;;;;;;;;;;2.00;99.90;;;;;;4903359;23;20044;-88
2021/12/23 17:57:35;;;;;;;150.37;48.37;;;2.00;99.90;;;;;;4885227;29;20399;-88
2021/12/23 18:00:09;;;;;;;168.13;47.63;;;3.30;99.90;;;;;;4880471;29;20051;-88
2021/12/23 18:02:53;;;;;;;183.07;50.07;;;2.00;99.90;;;;;;4897617;23;20130;-89
2021/12/23 18:05:23;;;;;;;;;;;2.10;99.90;;;;;;4899851;29;20204;-89
2021/12/23 18:07:49;;;;;;;172.57;48.00;;;2.20;99.90;;;;;;4900123;29;19966;-86
2021/12/23 18:10:34;;;;;;;167.90;50.63;;;1.80;99.90;;;;;;4893527;29;20448;-90
2021/12/23 18:13:04;;;;;;;175.73;51.73;;;2.00;99.90;;;;;;4885908;29;20045;-88
2021/12/23 18:15:43;;;;;;;169.63;48.20;;;1.90;99.90;;;;;;4887450;29;20375;-89
2021/12/23 18:18:12;;;;;;;161.90;50.23;;;2.20;99.90;;;;;;4889617;29;20059;-88
2021/12/23 18:20:41;;;;;;;161.70;52.17;;;2.70;99.90;;;;;;4907152;29;20068;-89
2021/12/23 18:23:25;;;;;;;184.90;52.07;;;1.00;99.90;;;;;;4905032;23;20040;-89
2021/12/23 18:25:51;;;;;;;;;;;2.00;99.90;;;;;;4923460;23;20059;-87
2021/12/23 18:28:18;;;;;;;182.93;52.67;;;2.30;99.90;;;;;;4906722;23;19923;-88
2021/12/23 18:30:45;;;;;;;202.43;55.80;;;3.00;99.90;;;;;;4894553;29;20049;-88
2021/12/23 18:33:18;;;;;;;186.60;55.30;;;2.60;99.90;;;;;;4912353;23;20098;-88
2021/12/23 18:36:20;;;;;;;187.10;52.57;;;2.20;99.90;;;;;;4905884;23;20072;-90
2021/12/23 18:41:54;;;;;;;194.30;54.57;;;3.20;99.90;;;;;;4931777;23;20060;-89
2021/12/23 18:44:29;;;;;;;174.13;54.83;;;2.50;99.90;;;;;;4905999;23;20070;-88
2021/12/23 18:47:07;;;;;;;174.83;52.53;;;3.30;99.90;;;;;;4898495;29;20477;-89
2021/12/23 18:49:42;;;;;;;180.07;50.20;;;2.70;99.90;;;;;;4895162;29;20075;-88
2021/12/23 18:52:20;;;;;;;166.13;51.90;;;3.50;99.90;;;;;;4896926;29;20044;-88
2021/12/23 18:54:46;;;;;;;166.03;50.27;;;3.60;99.90;;;;;;4897750;29;20036;-88
2021/12/23 18:57:33;;;;;;;178.37;54.73;;;3.20;99.90;;;;;;4899194;29;20115;-88
2021/12/23 19:00:04;;;;;;;151.70;50.83;;;3.60;99.90;;;;;;4902558;29;20040;-88
2021/12/23 19:05:24;;;;;;;170.23;52.97;;;2.50;99.90;;;;;;4916996;29;20079;-88
2021/12/23 19:07:57;;;;;;;160.43;51.10;;;3.50;99.90;;;;;;4909922;29;20048;-87
2021/12/23 19:13:13;;;;;;;151.07;51.27;;;4.20;99.90;;;;;;4883982;29;20055;-87
2021/12/23 19:15:47;;;;;;;148.03;52.20;;;3.00;99.90;;;;;;4916048;29;20059;-88
2021/12/23 19:18:13;;;;;;;110.70;43.50;;;2.70;99.90;;;;;;4916417;29;20056;-87
2021/12/23 19:20:55;;;;;;;132.73;48.03;;;2.80;99.90;;;;;;4919074;29;20048;-87
2021/12/23 19:23:32;;;;;;;137.97;50.97;;;3.00;99.90;;;;;;4907672;29;20024;-87
2021/12/23 19:26:05;;;;;;;138.47;50.67;;;3.70;99.90;;;;;;4936943;29;20063;-88
2021/12/23 19:28:43;;;;;;;134.33;48.57;;;3.80;99.90;;;;;;4900577;29;20135;-88
2021/12/23 19:31:13;;;;;;;125.33;47.27;;;3.90;99.90;;;;;;4902830;29;20052;-88
2021/12/23 19:33:43;;;;;;;117.57;45.10;;;3.40;99.90;;;;;;4900204;29;20048;-88
2021/12/23 19:36:11;;;;;;;116.77;47.87;;;2.80;99.90;;;;;;4897788;29;20044;-88
2021/12/23 19:38:43;;;;;;;113.17;46.47;;;2.80;99.90;;;;;;4899326;29;20512;-89
2021/12/23 19:41:15;;;;;;;123.50;47.03;;;2.80;99.90;;;;;;4896823;29;20400;-88
2021/12/23 19:44:33;;;;;;;126.87;49.37;;;3.90;99.90;;;;;;4896188;29;20454;-89
2021/12/23 19:46:59;;;;;;;118.83;44.13;;;4.00;99.90;;;;;;4898198;29;20540;-89
2021/12/23 19:49:25;;;;;;;125.63;45.43;;;2.70;99.90;;;;;;4896441;29;20173;-89
2021/12/23 19:51:52;;;;;;;108.20;43.67;;;4.20;99.90;;;;;;4895517;29;20096;-89
2021/12/23 19:54:39;;;;;;;103.33;41.77;;;2.90;99.90;;;;;;4895924;29;20040;-89
2021/12/23 19:57:05;;;;;;;119.50;43.83;;;2.80;99.90;;;;;;4895260;29;20051;-88
2021/12/23 19:59:31;;;;;;;109.27;43.37;;;3.90;99.90;;;;;;4896376;29;20052;-89
2021/12/23 20:02:05;;;;;;;104.50;41.57;;;3.50;99.90;;;;;;4895482;29;20116;-89
2021/12/23 20:04:33;;;;;;;108.27;43.73;;;3.40;99.90;;;;;;4893686;29;20057;-89
2021/12/23 20:07:08;;;;;;;102.83;43.73;;;3.80;99.90;;;;;;4895483;29;20041;-88
2021/12/23 20:09:40;;;;;;;105.03;41.87;;;2.80;99.90;;;;;;4893992;29;20045;-90
2021/12/23 20:12:07;;;;;;;92.83;37.93;;;4.10;99.90;;;;;;4896027;29;20072;-89
2021/12/23 20:14:33;;;;;;;100.20;37.93;;;3.20;99.90;;;;;;4896515;29;20533;-87
2021/12/23 20:16:59;;;;;;;85.83;37.77;;;3.30;99.90;;;;;;4935587;23;20056;-89
2021/12/23 20:19:25;;;;;;;102.83;40.57;;;4.20;99.90;;;;;;4899593;29;20063;-90
2021/12/23 20:21:51;;;;;;;85.33;37.93;;;3.70;99.90;;;;;;5019126;23;20607;-89